sensor_id;sensor_type;location;lat;lon;timestamp;P1;durP1;ratioP1;P2;durP2;ratioP2
36971;SDS011;40554;52.122;20.678;2022-10-15T00:00:49;61.92;;;35.80;;
36971;SDS011;40554;52.122;20.678;2022-10-15T00:03:05;61.30;;;37.83;;
36971;SDS011;40554;52.122;20.678;2022-10-15T00:05:22;57.48;;;35.58;;
36971;SDS011;40554;52.122;20.678;2022-10-15T00:07:39;57.67;;;37.25;;
36971;SDS011;40554;52.122;20.678;2022-10-15T00:09:55;61.15;;;38.05;;
36971;SDS011;40554;52.122;20.678;2022-10-15T00:12:12;60.80;;;37.23;;
36971;SDS011;40554;52.122;20.678;2022-10-15T00:14:28;60.30;;;37.45;;
36971;SDS011;40554;52.122;20.678;2022-10-15T00:16:44;61.58;;;37.98;;
36971;SDS011;40554;52.122;20.678;2022-10-15T00:19:01;66.12;;;39.67;;
36971;SDS011;40554;52.122;20.678;2022-10-15T00:21:19;67.60;;;38.10;;
36971;SDS011;40554;52.122;20.678;2022-10-15T00:23:36;67.50;;;39.18;;
36971;SDS011;40554;52.122;20.678;2022-10-15T00:26:00;62.43;;;39.23;;
36971;SDS011;40554;52.122;20.678;2022-10-15T00:28:22;70.83;;;39.23;;
36971;SDS011;40554;52.122;20.678;2022-10-15T00:30:38;70.25;;;38.92;;
36971;SDS011;40554;52.122;20.678;2022-10-15T00:32:54;66.57;;;39.13;;
36971;SDS011;40554;52.122;20.678;2022-10-15T00:35:11;61.98;;;38.65;;
36971;SDS011;40554;52.122;20.678;2022-10-15T00:37:27;69.27;;;39.80;;
36971;SDS011;40554;52.122;20.678;2022-10-15T00:39:44;63.10;;;37.53;;
36971;SDS011;40554;52.122;20.678;2022-10-15T00:42:00;60.88;;;38.50;;
36971;SDS011;40554;52.122;20.678;2022-10-15T00:46:48;56.40;;;35.23;;
36971;SDS011;40554;52.122;20.678;2022-10-15T00:49:18;64.95;;;36.17;;
36971;SDS011;40554;52.122;20.678;2022-10-15T00:51:40;61.65;;;37.93;;
36971;SDS011;40554;52.122;20.678;2022-10-15T00:54:00;70.47;;;38.20;;
36971;SDS011;40554;52.122;20.678;2022-10-15T00:56:18;62.95;;;37.70;;
36971;SDS011;40554;52.122;20.678;2022-10-15T00:58:36;58.35;;;36.05;;
36971;SDS011;40554;52.122;20.678;2022-10-15T01:00:53;65.08;;;37.83;;
36971;SDS011;40554;52.122;20.678;2022-10-15T01:03:10;65.12;;;38.78;;
36971;SDS011;40554;52.122;20.678;2022-10-15T01:05:27;68.02;;;38.25;;
36971;SDS011;40554;52.122;20.678;2022-10-15T01:07:44;68.75;;;39.88;;
36971;SDS011;40554;52.122;20.678;2022-10-15T01:10:00;65.55;;;37.20;;
36971;SDS011;40554;52.122;20.678;2022-10-15T01:12:25;76.30;;;41.88;;
36971;SDS011;40554;52.122;20.678;2022-10-15T01:14:52;59.73;;;37.78;;
36971;SDS011;40554;52.122;20.678;2022-10-15T01:17:26;66.55;;;38.10;;
36971;SDS011;40554;52.122;20.678;2022-10-15T01:25:28;65.90;;;36.35;;
36971;SDS011;40554;52.122;20.678;2022-10-15T01:31:06;62.80;;;36.63;;
36971;SDS011;40554;52.122;20.678;2022-10-15T01:38:42;73.07;;;38.42;;
36971;SDS011;40554;52.122;20.678;2022-10-15T01:46:30;66.50;;;38.60;;
36971;SDS011;40554;52.122;20.678;2022-10-15T01:48:53;67.90;;;38.63;;
36971;SDS011;40554;52.122;20.678;2022-10-15T01:51:12;70.72;;;39.85;;
36971;SDS011;40554;52.122;20.678;2022-10-15T01:53:31;69.15;;;39.33;;
36971;SDS011;40554;52.122;20.678;2022-10-15T01:55:50;69.87;;;40.12;;
36971;SDS011;40554;52.122;20.678;2022-10-15T01:58:12;67.65;;;39.55;;
36971;SDS011;40554;52.122;20.678;2022-10-15T02:00:31;76.05;;;42.83;;
36971;SDS011;40554;52.122;20.678;2022-10-15T02:02:47;67.75;;;39.70;;
36971;SDS011;40554;52.122;20.678;2022-10-15T02:05:04;62.03;;;36.85;;
36971;SDS011;40554;52.122;20.678;2022-10-15T02:07:43;67.10;;;38.13;;
36971;SDS011;40554;52.122;20.678;2022-10-15T02:10:16;70.92;;;39.30;;
36971;SDS011;40554;52.122;20.678;2022-10-15T02:17:34;68.65;;;38.48;;
36971;SDS011;40554;52.122;20.678;2022-10-15T02:20:19;67.30;;;38.67;;
36971;SDS011;40554;52.122;20.678;2022-10-15T02:22:42;67.53;;;38.30;;
36971;SDS011;40554;52.122;20.678;2022-10-15T02:25:17;72.25;;;40.05;;
36971;SDS011;40554;52.122;20.678;2022-10-15T02:27:35;71.92;;;38.70;;
36971;SDS011;40554;52.122;20.678;2022-10-15T02:29:54;72.37;;;39.25;;
36971;SDS011;40554;52.122;20.678;2022-10-15T02:32:12;72.40;;;39.40;;
36971;SDS011;40554;52.122;20.678;2022-10-15T02:34:31;65.47;;;39.58;;
36971;SDS011;40554;52.122;20.678;2022-10-15T02:36:49;68.92;;;39.00;;
36971;SDS011;40554;52.122;20.678;2022-10-15T02:39:07;72.08;;;43.85;;
36971;SDS011;40554;52.122;20.678;2022-10-15T02:41:27;74.37;;;42.00;;
36971;SDS011;40554;52.122;20.678;2022-10-15T02:43:45;77.08;;;42.38;;
36971;SDS011;40554;52.122;20.678;2022-10-15T02:46:02;71.25;;;39.25;;
36971;SDS011;40554;52.122;20.678;2022-10-15T02:48:20;71.97;;;40.23;;
36971;SDS011;40554;52.122;20.678;2022-10-15T02:50:36;71.75;;;41.08;;
36971;SDS011;40554;52.122;20.678;2022-10-15T02:52:52;73.75;;;40.70;;
36971;SDS011;40554;52.122;20.678;2022-10-15T02:55:09;71.50;;;40.25;;
36971;SDS011;40554;52.122;20.678;2022-10-15T02:57:25;76.87;;;40.00;;
36971;SDS011;40554;52.122;20.678;2022-10-15T02:59:41;67.78;;;39.67;;
36971;SDS011;40554;52.122;20.678;2022-10-15T03:01:58;72.80;;;39.73;;
36971;SDS011;40554;52.122;20.678;2022-10-15T03:04:14;77.65;;;40.73;;
36971;SDS011;40554;52.122;20.678;2022-10-15T03:06:30;71.62;;;41.00;;
36971;SDS011;40554;52.122;20.678;2022-10-15T03:08:47;78.72;;;41.83;;
36971;SDS011;40554;52.122;20.678;2022-10-15T03:11:04;73.00;;;40.45;;
36971;SDS011;40554;52.122;20.678;2022-10-15T03:13:20;76.35;;;39.65;;
36971;SDS011;40554;52.122;20.678;2022-10-15T03:15:36;75.78;;;42.13;;
36971;SDS011;40554;52.122;20.678;2022-10-15T03:17:53;75.45;;;41.60;;
36971;SDS011;40554;52.122;20.678;2022-10-15T03:20:09;73.85;;;41.55;;
36971;SDS011;40554;52.122;20.678;2022-10-15T03:22:26;78.70;;;42.62;;
36971;SDS011;40554;52.122;20.678;2022-10-15T03:24:42;79.15;;;42.05;;
36971;SDS011;40554;52.122;20.678;2022-10-15T03:26:58;76.35;;;41.55;;
36971;SDS011;40554;52.122;20.678;2022-10-15T03:29:15;75.37;;;39.55;;
36971;SDS011;40554;52.122;20.678;2022-10-15T03:31:31;76.33;;;41.83;;
36971;SDS011;40554;52.122;20.678;2022-10-15T03:33:47;80.28;;;43.13;;
36971;SDS011;40554;52.122;20.678;2022-10-15T03:36:05;78.00;;;42.27;;
36971;SDS011;40554;52.122;20.678;2022-10-15T03:38:23;78.30;;;40.23;;
36971;SDS011;40554;52.122;20.678;2022-10-15T03:40:39;71.95;;;40.83;;
36971;SDS011;40554;52.122;20.678;2022-10-15T03:42:55;73.33;;;41.83;;
36971;SDS011;40554;52.122;20.678;2022-10-15T03:45:12;79.15;;;41.30;;
36971;SDS011;40554;52.122;20.678;2022-10-15T03:47:28;74.60;;;41.48;;
36971;SDS011;40554;52.122;20.678;2022-10-15T03:49:44;73.30;;;42.35;;
36971;SDS011;40554;52.122;20.678;2022-10-15T03:52:01;76.42;;;44.25;;
36971;SDS011;40554;52.122;20.678;2022-10-15T03:54:17;81.05;;;44.70;;
36971;SDS011;40554;52.122;20.678;2022-10-15T03:56:34;77.05;;;43.20;;
36971;SDS011;40554;52.122;20.678;2022-10-15T03:58:50;82.02;;;42.27;;
36971;SDS011;40554;52.122;20.678;2022-10-15T04:01:11;76.45;;;41.95;;
36971;SDS011;40554;52.122;20.678;2022-10-15T04:03:30;73.02;;;41.37;;
36971;SDS011;40554;52.122;20.678;2022-10-15T04:05:50;80.57;;;42.88;;
36971;SDS011;40554;52.122;20.678;2022-10-15T04:08:07;82.27;;;43.87;;
36971;SDS011;40554;52.122;20.678;2022-10-15T04:10:24;77.30;;;43.35;;
36971;SDS011;40554;52.122;20.678;2022-10-15T04:12:40;81.87;;;44.70;;
36971;SDS011;40554;52.122;20.678;2022-10-15T04:14:56;75.47;;;44.35;;
36971;SDS011;40554;52.122;20.678;2022-10-15T04:17:13;73.17;;;42.45;;
36971;SDS011;40554;52.122;20.678;2022-10-15T04:19:30;73.05;;;42.08;;
36971;SDS011;40554;52.122;20.678;2022-10-15T04:21:46;76.82;;;42.27;;
36971;SDS011;40554;52.122;20.678;2022-10-15T04:24:02;73.28;;;40.55;;
36971;SDS011;40554;52.122;20.678;2022-10-15T04:30:54;69.70;;;39.23;;
36971;SDS011;40554;52.122;20.678;2022-10-15T04:33:13;71.77;;;39.70;;
36971;SDS011;40554;52.122;20.678;2022-10-15T04:35:29;72.03;;;38.98;;
36971;SDS011;40554;52.122;20.678;2022-10-15T04:37:46;68.75;;;38.53;;
36971;SDS011;40554;52.122;20.678;2022-10-15T04:40:03;67.42;;;39.25;;
36971;SDS011;40554;52.122;20.678;2022-10-15T04:42:21;64.45;;;38.88;;
36971;SDS011;40554;52.122;20.678;2022-10-15T04:44:37;72.05;;;41.83;;
36971;SDS011;40554;52.122;20.678;2022-10-15T04:46:54;67.20;;;39.58;;
36971;SDS011;40554;52.122;20.678;2022-10-15T04:49:10;64.55;;;38.70;;
36971;SDS011;40554;52.122;20.678;2022-10-15T04:51:26;68.52;;;37.30;;
36971;SDS011;40554;52.122;20.678;2022-10-15T04:53:43;67.97;;;40.92;;
36971;SDS011;40554;52.122;20.678;2022-10-15T04:56:00;69.37;;;39.53;;
36971;SDS011;40554;52.122;20.678;2022-10-15T04:58:19;67.40;;;38.55;;
36971;SDS011;40554;52.122;20.678;2022-10-15T05:00:36;67.50;;;38.13;;
36971;SDS011;40554;52.122;20.678;2022-10-15T05:02:53;59.63;;;37.25;;
36971;SDS011;40554;52.122;20.678;2022-10-15T05:05:09;63.63;;;37.25;;
36971;SDS011;40554;52.122;20.678;2022-10-15T05:07:26;72.90;;;38.90;;
36971;SDS011;40554;52.122;20.678;2022-10-15T05:09:42;66.75;;;37.93;;
36971;SDS011;40554;52.122;20.678;2022-10-15T05:11:58;64.67;;;37.05;;
36971;SDS011;40554;52.122;20.678;2022-10-15T05:14:15;60.92;;;35.78;;
36971;SDS011;40554;52.122;20.678;2022-10-15T05:16:31;59.85;;;36.90;;
36971;SDS011;40554;52.122;20.678;2022-10-15T05:18:49;64.70;;;37.23;;
36971;SDS011;40554;52.122;20.678;2022-10-15T05:21:10;64.40;;;38.25;;
36971;SDS011;40554;52.122;20.678;2022-10-15T05:23:26;64.50;;;36.88;;
36971;SDS011;40554;52.122;20.678;2022-10-15T05:25:43;58.83;;;34.80;;
36971;SDS011;40554;52.122;20.678;2022-10-15T05:27:59;62.62;;;37.95;;
36971;SDS011;40554;52.122;20.678;2022-10-15T05:30:15;55.75;;;35.60;;
36971;SDS011;40554;52.122;20.678;2022-10-15T05:32:32;63.28;;;36.65;;
36971;SDS011;40554;52.122;20.678;2022-10-15T05:34:48;62.40;;;36.33;;
36971;SDS011;40554;52.122;20.678;2022-10-15T05:37:05;59.15;;;35.92;;
36971;SDS011;40554;52.122;20.678;2022-10-15T05:39:22;59.20;;;35.00;;
36971;SDS011;40554;52.122;20.678;2022-10-15T05:41:38;62.70;;;36.25;;
36971;SDS011;40554;52.122;20.678;2022-10-15T05:43:55;59.60;;;35.30;;
36971;SDS011;40554;52.122;20.678;2022-10-15T05:46:13;56.65;;;34.45;;
36971;SDS011;40554;52.122;20.678;2022-10-15T05:48:30;56.92;;;34.38;;
36971;SDS011;40554;52.122;20.678;2022-10-15T05:50:46;57.05;;;35.70;;
36971;SDS011;40554;52.122;20.678;2022-10-15T05:53:02;61.33;;;35.15;;
36971;SDS011;40554;52.122;20.678;2022-10-15T05:55:18;56.88;;;34.53;;
36971;SDS011;40554;52.122;20.678;2022-10-15T05:57:35;60.65;;;35.80;;
36971;SDS011;40554;52.122;20.678;2022-10-15T05:59:51;56.42;;;34.95;;
36971;SDS011;40554;52.122;20.678;2022-10-15T06:02:08;61.73;;;35.10;;
36971;SDS011;40554;52.122;20.678;2022-10-15T06:04:27;56.35;;;32.83;;
36971;SDS011;40554;52.122;20.678;2022-10-15T06:06:43;49.53;;;32.30;;
36971;SDS011;40554;52.122;20.678;2022-10-15T06:09:00;56.30;;;34.75;;
36971;SDS011;40554;52.122;20.678;2022-10-15T06:11:16;53.55;;;33.85;;
36971;SDS011;40554;52.122;20.678;2022-10-15T06:13:33;51.77;;;34.25;;
36971;SDS011;40554;52.122;20.678;2022-10-15T06:15:50;60.73;;;35.65;;
36971;SDS011;40554;52.122;20.678;2022-10-15T06:18:06;53.25;;;34.27;;
36971;SDS011;40554;52.122;20.678;2022-10-15T06:20:23;57.30;;;35.15;;
36971;SDS011;40554;52.122;20.678;2022-10-15T06:22:40;52.90;;;32.65;;
36971;SDS011;40554;52.122;20.678;2022-10-15T06:24:56;51.92;;;33.25;;
36971;SDS011;40554;52.122;20.678;2022-10-15T06:27:13;54.15;;;33.20;;
36971;SDS011;40554;52.122;20.678;2022-10-15T06:29:29;57.85;;;33.00;;
36971;SDS011;40554;52.122;20.678;2022-10-15T06:31:45;57.00;;;32.83;;
36971;SDS011;40554;52.122;20.678;2022-10-15T06:34:01;54.23;;;32.93;;
36971;SDS011;40554;52.122;20.678;2022-10-15T06:36:18;60.60;;;34.30;;
36971;SDS011;40554;52.122;20.678;2022-10-15T06:38:35;57.95;;;33.80;;
36971;SDS011;40554;52.122;20.678;2022-10-15T06:40:53;58.17;;;33.92;;
36971;SDS011;40554;52.122;20.678;2022-10-15T06:43:10;56.20;;;33.88;;
36971;SDS011;40554;52.122;20.678;2022-10-15T06:45:26;58.98;;;35.73;;
36971;SDS011;40554;52.122;20.678;2022-10-15T06:47:43;53.73;;;33.85;;
36971;SDS011;40554;52.122;20.678;2022-10-15T06:49:59;51.88;;;33.42;;
36971;SDS011;40554;52.122;20.678;2022-10-15T06:52:16;56.50;;;33.23;;
36971;SDS011;40554;52.122;20.678;2022-10-15T06:54:32;60.15;;;35.20;;
36971;SDS011;40554;52.122;20.678;2022-10-15T06:56:48;60.95;;;32.55;;
36971;SDS011;40554;52.122;20.678;2022-10-15T06:59:05;54.67;;;31.27;;
36971;SDS011;40554;52.122;20.678;2022-10-15T07:01:21;60.03;;;33.33;;
36971;SDS011;40554;52.122;20.678;2022-10-15T07:03:37;52.53;;;31.68;;
36971;SDS011;40554;52.122;20.678;2022-10-15T07:05:54;49.20;;;31.48;;
36971;SDS011;40554;52.122;20.678;2022-10-15T07:08:10;48.68;;;30.85;;
36971;SDS011;40554;52.122;20.678;2022-10-15T07:10:27;48.50;;;30.82;;
36971;SDS011;40554;52.122;20.678;2022-10-15T07:12:44;50.70;;;32.35;;
36971;SDS011;40554;52.122;20.678;2022-10-15T07:15:00;50.73;;;31.62;;
36971;SDS011;40554;52.122;20.678;2022-10-15T07:17:16;48.38;;;29.15;;
36971;SDS011;40554;52.122;20.678;2022-10-15T07:19:33;49.00;;;30.40;;
36971;SDS011;40554;52.122;20.678;2022-10-15T07:21:49;45.65;;;28.85;;
36971;SDS011;40554;52.122;20.678;2022-10-15T07:24:06;43.08;;;29.35;;
36971;SDS011;40554;52.122;20.678;2022-10-15T07:26:22;44.58;;;27.67;;
36971;SDS011;40554;52.122;20.678;2022-10-15T07:28:39;47.93;;;28.95;;
36971;SDS011;40554;52.122;20.678;2022-10-15T07:30:59;47.55;;;28.80;;
36971;SDS011;40554;52.122;20.678;2022-10-15T07:33:18;42.93;;;27.82;;
36971;SDS011;40554;52.122;20.678;2022-10-15T07:35:36;49.77;;;29.12;;
36971;SDS011;40554;52.122;20.678;2022-10-15T07:37:52;40.00;;;27.13;;
36971;SDS011;40554;52.122;20.678;2022-10-15T07:40:10;42.33;;;27.17;;
36971;SDS011;40554;52.122;20.678;2022-10-15T07:42:27;42.55;;;25.68;;
36971;SDS011;40554;52.122;20.678;2022-10-15T07:44:43;42.08;;;26.95;;
36971;SDS011;40554;52.122;20.678;2022-10-15T07:47:00;41.80;;;26.35;;
36971;SDS011;40554;52.122;20.678;2022-10-15T07:49:16;43.65;;;27.45;;
36971;SDS011;40554;52.122;20.678;2022-10-15T07:51:32;43.50;;;25.90;;
36971;SDS011;40554;52.122;20.678;2022-10-15T07:53:49;39.65;;;25.12;;
36971;SDS011;40554;52.122;20.678;2022-10-15T07:56:06;38.73;;;24.87;;
36971;SDS011;40554;52.122;20.678;2022-10-15T07:58:25;37.25;;;24.20;;
36971;SDS011;40554;52.122;20.678;2022-10-15T08:00:44;36.93;;;25.52;;
36971;SDS011;40554;52.122;20.678;2022-10-15T08:03:00;32.55;;;22.87;;
36971;SDS011;40554;52.122;20.678;2022-10-15T08:05:17;32.75;;;21.85;;
36971;SDS011;40554;52.122;20.678;2022-10-15T08:07:33;31.40;;;23.55;;
36971;SDS011;40554;52.122;20.678;2022-10-15T08:09:50;35.45;;;22.48;;
36971;SDS011;40554;52.122;20.678;2022-10-15T08:12:06;32.88;;;23.15;;
36971;SDS011;40554;52.122;20.678;2022-10-15T08:14:22;31.17;;;21.93;;
36971;SDS011;40554;52.122;20.678;2022-10-15T08:16:39;30.85;;;21.50;;
36971;SDS011;40554;52.122;20.678;2022-10-15T08:18:56;28.62;;;21.07;;
36971;SDS011;40554;52.122;20.678;2022-10-15T08:21:13;34.65;;;22.62;;
36971;SDS011;40554;52.122;20.678;2022-10-15T08:23:29;30.97;;;21.45;;
36971;SDS011;40554;52.122;20.678;2022-10-15T08:25:46;28.80;;;21.60;;
36971;SDS011;40554;52.122;20.678;2022-10-15T08:28:02;31.60;;;22.52;;
36971;SDS011;40554;52.122;20.678;2022-10-15T08:30:19;27.77;;;20.77;;
36971;SDS011;40554;52.122;20.678;2022-10-15T08:32:35;28.50;;;20.45;;
36971;SDS011;40554;52.122;20.678;2022-10-15T08:34:51;29.15;;;20.25;;
36971;SDS011;40554;52.122;20.678;2022-10-15T08:37:08;30.12;;;20.23;;
36971;SDS011;40554;52.122;20.678;2022-10-15T08:39:24;32.17;;;21.30;;
36971;SDS011;40554;52.122;20.678;2022-10-15T08:41:48;27.00;;;20.15;;
36971;SDS011;40554;52.122;20.678;2022-10-15T08:44:25;29.82;;;20.45;;
36971;SDS011;40554;52.122;20.678;2022-10-15T08:46:49;30.62;;;19.85;;
36971;SDS011;40554;52.122;20.678;2022-10-15T08:49:25;23.35;;;17.87;;
36971;SDS011;40554;52.122;20.678;2022-10-15T08:51:47;28.05;;;20.05;;
36971;SDS011;40554;52.122;20.678;2022-10-15T08:54:08;32.30;;;20.05;;
36971;SDS011;40554;52.122;20.678;2022-10-15T09:01:47;25.45;;;18.95;;
36971;SDS011;40554;52.122;20.678;2022-10-15T09:06:54;26.35;;;18.23;;
36971;SDS011;40554;52.122;20.678;2022-10-15T09:14:42;24.70;;;18.35;;
36971;SDS011;40554;52.122;20.678;2022-10-15T09:17:03;24.85;;;17.80;;
36971;SDS011;40554;52.122;20.678;2022-10-15T09:19:40;25.12;;;17.80;;
36971;SDS011;40554;52.122;20.678;2022-10-15T09:21:59;25.20;;;18.25;;
36971;SDS011;40554;52.122;20.678;2022-10-15T09:24:22;27.22;;;17.92;;
36971;SDS011;40554;52.122;20.678;2022-10-15T09:29:43;25.40;;;17.40;;
36971;SDS011;40554;52.122;20.678;2022-10-15T09:34:57;23.07;;;17.40;;
36971;SDS011;40554;52.122;20.678;2022-10-15T09:37:35;25.23;;;17.32;;
36971;SDS011;40554;52.122;20.678;2022-10-15T09:40:19;29.32;;;18.27;;
36971;SDS011;40554;52.122;20.678;2022-10-15T09:42:43;25.05;;;17.85;;
36971;SDS011;40554;52.122;20.678;2022-10-15T09:45:03;25.62;;;18.40;;
36971;SDS011;40554;52.122;20.678;2022-10-15T09:47:28;27.55;;;18.90;;
36971;SDS011;40554;52.122;20.678;2022-10-15T09:49:46;22.35;;;17.90;;
36971;SDS011;40554;52.122;20.678;2022-10-15T09:52:07;24.32;;;17.42;;
36971;SDS011;40554;52.122;20.678;2022-10-15T09:54:37;22.45;;;17.37;;
36971;SDS011;40554;52.122;20.678;2022-10-15T09:56:55;25.10;;;18.02;;
36971;SDS011;40554;52.122;20.678;2022-10-15T09:59:16;26.45;;;18.35;;
36971;SDS011;40554;52.122;20.678;2022-10-15T10:01:35;22.48;;;16.62;;
36971;SDS011;40554;52.122;20.678;2022-10-15T10:04:08;24.20;;;18.32;;
36971;SDS011;40554;52.122;20.678;2022-10-15T10:06:28;21.00;;;16.77;;
36971;SDS011;40554;52.122;20.678;2022-10-15T10:08:54;22.02;;;16.17;;
36971;SDS011;40554;52.122;20.678;2022-10-15T10:11:13;24.55;;;17.55;;
36971;SDS011;40554;52.122;20.678;2022-10-15T10:13:33;21.45;;;16.93;;
36971;SDS011;40554;52.122;20.678;2022-10-15T10:16:10;22.02;;;16.07;;
36971;SDS011;40554;52.122;20.678;2022-10-15T10:18:29;25.00;;;16.90;;
36971;SDS011;40554;52.122;20.678;2022-10-15T10:23:21;24.25;;;17.87;;
36971;SDS011;40554;52.122;20.678;2022-10-15T10:30:27;20.37;;;15.80;;
36971;SDS011;40554;52.122;20.678;2022-10-15T10:32:54;23.83;;;16.45;;
36971;SDS011;40554;52.122;20.678;2022-10-15T10:35:23;23.05;;;15.68;;
36971;SDS011;40554;52.122;20.678;2022-10-15T10:37:40;21.93;;;15.78;;
36971;SDS011;40554;52.122;20.678;2022-10-15T10:39:58;17.98;;;15.03;;
36971;SDS011;40554;52.122;20.678;2022-10-15T10:44:40;20.92;;;16.42;;
36971;SDS011;40554;52.122;20.678;2022-10-15T10:47:10;19.27;;;16.20;;
36971;SDS011;40554;52.122;20.678;2022-10-15T10:49:34;19.42;;;14.73;;
36971;SDS011;40554;52.122;20.678;2022-10-15T10:51:54;21.60;;;16.50;;
36971;SDS011;40554;52.122;20.678;2022-10-15T10:54:10;21.93;;;15.98;;
36971;SDS011;40554;52.122;20.678;2022-10-15T10:56:29;21.68;;;16.65;;
36971;SDS011;40554;52.122;20.678;2022-10-15T10:59:02;21.87;;;15.60;;
36971;SDS011;40554;52.122;20.678;2022-10-15T11:01:39;21.95;;;16.52;;
36971;SDS011;40554;52.122;20.678;2022-10-15T11:03:56;21.68;;;16.17;;
36971;SDS011;40554;52.122;20.678;2022-10-15T11:09:19;22.05;;;16.87;;
36971;SDS011;40554;52.122;20.678;2022-10-15T11:17:25;22.65;;;16.52;;
36971;SDS011;40554;52.122;20.678;2022-10-15T11:27:34;19.25;;;15.40;;
36971;SDS011;40554;52.122;20.678;2022-10-15T11:30:00;22.20;;;15.95;;
36971;SDS011;40554;52.122;20.678;2022-10-15T11:38:02;21.87;;;16.00;;
36971;SDS011;40554;52.122;20.678;2022-10-15T11:43:08;18.75;;;15.40;;
36971;SDS011;40554;52.122;20.678;2022-10-15T11:51:05;20.40;;;15.30;;
36971;SDS011;40554;52.122;20.678;2022-10-15T11:53:36;19.52;;;15.43;;
36971;SDS011;40554;52.122;20.678;2022-10-15T11:56:12;16.32;;;13.90;;
36971;SDS011;40554;52.122;20.678;2022-10-15T11:58:48;19.57;;;15.50;;
36971;SDS011;40554;52.122;20.678;2022-10-15T12:01:13;19.50;;;15.70;;
36971;SDS011;40554;52.122;20.678;2022-10-15T12:03:53;22.45;;;15.03;;
36971;SDS011;40554;52.122;20.678;2022-10-15T12:06:15;21.60;;;15.68;;
36971;SDS011;40554;52.122;20.678;2022-10-15T12:08:34;20.75;;;15.72;;
36971;SDS011;40554;52.122;20.678;2022-10-15T12:19:39;22.77;;;16.32;;
36971;SDS011;40554;52.122;20.678;2022-10-15T12:21:37;20.12;;;15.10;;
36971;SDS011;40554;52.122;20.678;2022-10-15T12:23:59;21.90;;;16.02;;
36971;SDS011;40554;52.122;20.678;2022-10-15T12:28:47;22.67;;;15.93;;
36971;SDS011;40554;52.122;20.678;2022-10-15T12:31:06;21.25;;;16.42;;
36971;SDS011;40554;52.122;20.678;2022-10-15T12:33:43;21.23;;;17.15;;
36971;SDS011;40554;52.122;20.678;2022-10-15T12:36:26;20.52;;;15.55;;
36971;SDS011;40554;52.122;20.678;2022-10-15T12:38:53;23.27;;;17.07;;
36971;SDS011;40554;52.122;20.678;2022-10-15T12:41:22;22.45;;;16.90;;
36971;SDS011;40554;52.122;20.678;2022-10-15T12:44:02;26.42;;;19.48;;
36971;SDS011;40554;52.122;20.678;2022-10-15T12:46:20;19.00;;;16.52;;
36971;SDS011;40554;52.122;20.678;2022-10-15T12:48:40;20.92;;;16.67;;
36971;SDS011;40554;52.122;20.678;2022-10-15T12:58:34;22.15;;;15.25;;
36971;SDS011;40554;52.122;20.678;2022-10-15T13:00:54;25.20;;;17.25;;
36971;SDS011;40554;52.122;20.678;2022-10-15T13:05:41;24.82;;;17.05;;
36971;SDS011;40554;52.122;20.678;2022-10-15T13:07:58;20.45;;;15.85;;
36971;SDS011;40554;52.122;20.678;2022-10-15T13:10:27;20.52;;;15.85;;
36971;SDS011;40554;52.122;20.678;2022-10-15T13:12:52;24.72;;;17.25;;
36971;SDS011;40554;52.122;20.678;2022-10-15T13:15:11;20.92;;;15.95;;
36971;SDS011;40554;52.122;20.678;2022-10-15T13:17:31;22.73;;;17.55;;
36971;SDS011;40554;52.122;20.678;2022-10-15T13:22:24;20.17;;;15.23;;
36971;SDS011;40554;52.122;20.678;2022-10-15T13:24:47;20.95;;;15.80;;
36971;SDS011;40554;52.122;20.678;2022-10-15T13:27:11;20.02;;;16.20;;
36971;SDS011;40554;52.122;20.678;2022-10-15T13:29:51;24.87;;;17.80;;
36971;SDS011;40554;52.122;20.678;2022-10-15T13:32:13;20.72;;;15.98;;
36971;SDS011;40554;52.122;20.678;2022-10-15T13:34:34;20.62;;;16.52;;
36971;SDS011;40554;52.122;20.678;2022-10-15T13:36:51;19.52;;;16.37;;
36971;SDS011;40554;52.122;20.678;2022-10-15T13:41:51;21.75;;;16.37;;
36971;SDS011;40554;52.122;20.678;2022-10-15T13:44:22;21.60;;;17.07;;
36971;SDS011;40554;52.122;20.678;2022-10-15T13:46:39;22.15;;;16.62;;
36971;SDS011;40554;52.122;20.678;2022-10-15T13:48:56;24.77;;;16.45;;
36971;SDS011;40554;52.122;20.678;2022-10-15T13:51:16;19.98;;;16.27;;
36971;SDS011;40554;52.122;20.678;2022-10-15T13:53:33;21.62;;;16.75;;
36971;SDS011;40554;52.122;20.678;2022-10-15T13:55:54;21.35;;;16.12;;
36971;SDS011;40554;52.122;20.678;2022-10-15T13:58:20;23.38;;;17.80;;
36971;SDS011;40554;52.122;20.678;2022-10-15T14:03:33;22.25;;;15.65;;
36971;SDS011;40554;52.122;20.678;2022-10-15T14:05:51;24.57;;;17.60;;
36971;SDS011;40554;52.122;20.678;2022-10-15T14:08:55;23.55;;;17.77;;
36971;SDS011;40554;52.122;20.678;2022-10-15T14:10:37;22.52;;;17.35;;
36971;SDS011;40554;52.122;20.678;2022-10-15T14:12:53;25.37;;;18.67;;
36971;SDS011;40554;52.122;20.678;2022-10-15T14:18:10;21.05;;;17.07;;
36971;SDS011;40554;52.122;20.678;2022-10-15T14:20:29;26.05;;;18.82;;
36971;SDS011;40554;52.122;20.678;2022-10-15T14:22:50;21.57;;;16.52;;
36971;SDS011;40554;52.122;20.678;2022-10-15T14:25:07;25.60;;;17.45;;
36971;SDS011;40554;52.122;20.678;2022-10-15T14:27:24;28.45;;;19.82;;
36971;SDS011;40554;52.122;20.678;2022-10-15T14:29:43;25.43;;;18.42;;
36971;SDS011;40554;52.122;20.678;2022-10-15T14:32:14;24.27;;;17.42;;
36971;SDS011;40554;52.122;20.678;2022-10-15T14:34:43;24.92;;;16.85;;
36971;SDS011;40554;52.122;20.678;2022-10-15T14:37:00;22.10;;;17.60;;
36971;SDS011;40554;52.122;20.678;2022-10-15T14:41:55;26.85;;;17.12;;
36971;SDS011;40554;52.122;20.678;2022-10-15T14:44:17;21.30;;;16.25;;
36971;SDS011;40554;52.122;20.678;2022-10-15T14:47:19;22.00;;;17.82;;
36971;SDS011;40554;52.122;20.678;2022-10-15T14:48:57;21.07;;;16.52;;
36971;SDS011;40554;52.122;20.678;2022-10-15T14:51:16;21.12;;;16.50;;
36971;SDS011;40554;52.122;20.678;2022-10-15T14:53:38;23.10;;;17.85;;
36971;SDS011;40554;52.122;20.678;2022-10-15T14:55:59;26.12;;;17.52;;
36971;SDS011;40554;52.122;20.678;2022-10-15T14:58:37;22.35;;;17.55;;
36971;SDS011;40554;52.122;20.678;2022-10-15T15:00:54;26.90;;;18.00;;
36971;SDS011;40554;52.122;20.678;2022-10-15T15:03:19;24.02;;;17.80;;
36971;SDS011;40554;52.122;20.678;2022-10-15T15:05:42;21.15;;;16.80;;
36971;SDS011;40554;52.122;20.678;2022-10-15T15:08:04;25.17;;;17.95;;
36971;SDS011;40554;52.122;20.678;2022-10-15T15:10:23;21.23;;;15.45;;
36971;SDS011;40554;52.122;20.678;2022-10-15T15:12:59;25.75;;;17.80;;
36971;SDS011;40554;52.122;20.678;2022-10-15T15:15:13;24.65;;;18.17;;
36971;SDS011;40554;52.122;20.678;2022-10-15T15:19:49;21.00;;;17.17;;
36971;SDS011;40554;52.122;20.678;2022-10-15T15:22:12;23.95;;;17.37;;
36971;SDS011;40554;52.122;20.678;2022-10-15T15:24:33;22.77;;;17.30;;
36971;SDS011;40554;52.122;20.678;2022-10-15T15:26:49;24.25;;;17.23;;
36971;SDS011;40554;52.122;20.678;2022-10-15T15:29:13;23.95;;;17.52;;
36971;SDS011;40554;52.122;20.678;2022-10-15T15:31:30;24.27;;;16.77;;
36971;SDS011;40554;52.122;20.678;2022-10-15T15:33:48;24.45;;;17.42;;